createdAt,value
2015-09-11T00:02:47.651Z,13.6
2015-09-11T00:07:50.273Z,13.5
2015-09-11T00:12:53.095Z,13.6
2015-09-11T00:17:55.042Z,13.4
2015-09-11T00:22:57.192Z,13.5
2015-09-11T00:27:59.437Z,13.5
2015-09-11T00:33:01.727Z,13.3
2015-09-11T00:38:03.971Z,13.2
2015-09-11T00:43:06.704Z,13.2
2015-09-11T00:48:08.087Z,13.4
2015-09-11T00:53:10.847Z,13.3
2015-09-11T00:58:14.122Z,14.1
2015-09-11T01:03:17.445Z,14.1
2015-09-11T01:08:19.610Z,14
2015-09-11T01:13:21.839Z,14.1
2015-09-11T01:18:25.599Z,14.1
2015-09-11T01:22:22.935Z,14
2015-09-11T01:27:25.726Z,14.3
2015-09-11T01:32:27.439Z,14.1
2015-09-11T01:37:30.833Z,13.6
2015-09-11T01:42:33.415Z,13.6
2015-09-11T01:47:35.326Z,13.5
2015-09-11T01:52:38.444Z,13.8
2015-09-11T01:57:41.369Z,13.6
2015-09-11T02:02:43.039Z,13.6
2015-09-11T02:07:45.503Z,13.6
2015-09-11T02:12:48.623Z,13.7
2015-09-11T02:17:49.851Z,13.8
2015-09-11T02:22:52.127Z,13.6
2015-09-11T02:27:55.293Z,13.7
2015-09-11T02:32:57.037Z,13.8
2015-09-11T02:34:43.291Z,13.6
2015-09-11T02:39:46.722Z,13.5
2015-09-11T02:44:48.620Z,13.4
2015-09-11T02:49:51.130Z,13.7
2015-09-11T02:54:54.359Z,13.3
2015-09-11T02:59:56.088Z,13.4
2015-09-11T03:04:58.065Z,13.2
2015-09-11T03:10:01.186Z,13.2
2015-09-11T03:15:02.789Z,13.3
2015-09-11T03:20:05.111Z,13.4
2015-09-11T03:25:07.730Z,13.5
2015-09-11T03:30:12.912Z,13.3
2015-09-11T03:35:13.499Z,13.4
2015-09-11T03:40:16.509Z,13.2
2015-09-11T03:45:18.144Z,13.4
2015-09-11T03:50:20.389Z,13.4
2015-09-11T03:55:22.742Z,12.4
2015-09-11T04:00:24.534Z,13.1
2015-09-11T04:05:27.230Z,12.9
2015-09-11T04:10:29.582Z,12.1
2015-09-11T04:15:32.139Z,12.1
2015-09-11T04:20:33.586Z,12.2
2015-09-11T04:25:36.330Z,11.1
2015-09-11T04:30:39.215Z,12.5
2015-09-11T04:35:40.945Z,12.6
2015-09-11T04:40:43.204Z,12.5
2015-09-11T04:45:45.432Z,12.7
2015-09-11T04:50:47.769Z,12.5
2015-09-11T04:55:51.045Z,12.5
2015-09-11T05:00:52.805Z,12.7
2015-09-11T05:05:57.096Z,12.6
2015-09-11T05:10:59.527Z,12.6
2015-09-11T05:16:01.725Z,12.6
2015-09-11T05:21:04.016Z,12.4
2015-09-11T05:26:06.365Z,12.9
2015-09-11T05:31:08.578Z,12.2
2015-09-11T05:36:10.852Z,11.5
2015-09-11T05:41:12.657Z,11.8
2015-09-11T05:46:16.183Z,11.8
2015-09-11T05:51:17.692Z,11.6
2015-09-11T05:56:19.933Z,11.4
2015-09-11T06:01:22.177Z,11.6
2015-09-11T06:06:24.453Z,11.5
2015-09-11T06:11:26.775Z,11.5
2015-09-11T06:16:29.035Z,11.6
2015-09-11T06:21:31.295Z,11.4
2015-09-11T06:26:33.149Z,12.1
2015-09-11T06:31:36.173Z,11.9
2015-09-11T06:36:39.433Z,11.6
2015-09-11T06:41:40.381Z,11.8
2015-09-11T06:46:42.671Z,11.8
2015-09-11T06:51:46.354Z,11.7
2015-09-11T06:56:47.189Z,12.1
2015-09-11T07:01:49.480Z,12
2015-09-11T07:06:51.772Z,11.9
2015-09-11T07:11:54.125Z,12.9
2015-09-11T07:13:16.128Z,12.6
2015-09-11T07:18:19.045Z,12.4
2015-09-11T07:23:20.804Z,12.4
2015-09-11T07:28:23.047Z,12.8
2015-09-11T07:33:25.276Z,12.8
2015-09-11T07:38:28.066Z,12.9
2015-09-11T07:43:29.827Z,12.7
2015-09-11T07:48:32.117Z,12.9
2015-09-11T07:53:34.783Z,13.1
2015-09-11T07:58:37.466Z,13.2
2015-09-11T08:03:39.382Z,13.1
2015-09-11T08:08:41.110Z,13.1
2015-09-11T08:13:45.339Z,13.4
2015-09-11T08:18:46.177Z,13.5
2015-09-11T08:23:48.014Z,13.7
2015-09-11T08:28:50.319Z,13.8
2015-09-11T08:33:53.610Z,13.9
2015-09-11T08:38:55.385Z,14.2
2015-09-11T08:43:57.504Z,14.4
2015-09-11T08:49:00.186Z,14.6
2015-09-11T08:54:02.290Z,14.8
2015-09-11T08:59:04.581Z,14.9
2015-09-11T09:04:06.856Z,15.1
2015-09-11T09:09:09.116Z,15.2
2015-09-11T09:14:11.157Z,15.2
2015-09-11T09:19:13.605Z,15.4
2015-09-11T09:24:15.505Z,15.6
2015-09-11T09:29:17.968Z,15.9
2015-09-11T09:34:20.837Z,15.8
2015-09-11T09:39:22.768Z,15.9
2015-09-11T09:44:25.011Z,16
2015-09-11T09:49:27.302Z,16.2
2015-09-11T09:54:29.625Z,16.4
2015-09-11T09:59:32.713Z,16.3
2015-09-11T10:04:34.520Z,16.5
2015-09-11T10:09:36.810Z,16.6
2015-09-11T10:14:39.289Z,16.8
2015-09-11T10:19:41.861Z,16.8
2015-09-11T10:24:44.121Z,16.8
2015-09-11T10:29:46.380Z,16.9
2015-09-11T10:34:48.672Z,17.1
2015-09-11T10:39:50.932Z,17.2
2015-09-11T10:44:53.274Z,17.2
2015-09-11T10:49:55.483Z,17.4
2015-09-11T10:54:58.829Z,17.5
2015-09-11T11:00:00.874Z,17.8
2015-09-11T11:05:02.719Z,17.9
2015-09-11T11:10:05.058Z,17.9
2015-09-11T11:15:08.193Z,17.9
2015-09-11T11:20:10.452Z,18
2015-09-11T11:25:12.727Z,18.1
2015-09-11T11:30:15.689Z,18.2
2015-09-11T11:35:16.794Z,18.2
2015-09-11T11:40:19.397Z,18.3
2015-09-11T11:45:21.860Z,18.4
2015-09-11T11:50:24.182Z,18.5
2015-09-11T11:55:26.427Z,18.6
2015-09-11T12:00:28.780Z,18.7
2015-09-11T12:05:31.055Z,18.8
2015-09-11T12:10:33.284Z,18.8
2015-09-11T12:15:36.075Z,18.9
2015-09-11T12:20:38.397Z,18.9
2015-09-11T12:25:40.984Z,19.1
2015-09-11T12:30:43.463Z,19.1
2015-09-11T12:35:45.644Z,19.1
2015-09-11T12:40:47.841Z,19.2
2015-09-11T12:45:50.116Z,19.3
2015-09-11T12:50:52.408Z,19.6
2015-09-11T12:55:54.651Z,19.5
2015-09-11T13:00:56.427Z,19.8
2015-09-11T13:05:59.906Z,19.8
2015-09-11T13:11:02.977Z,19.7
2015-09-11T13:16:04.565Z,19.8
2015-09-11T13:21:06.794Z,19.7
2015-09-11T13:26:09.132Z,19.7
2015-09-11T13:31:11.330Z,19.9
2015-09-11T13:36:13.668Z,19.9
2015-09-11T13:41:15.942Z,19.9
2015-09-11T13:46:17.733Z,19.9
2015-09-11T13:51:20.023Z,20
2015-09-11T13:56:22.752Z,20.1
2015-09-11T14:01:25.574Z,20.1
2015-09-11T14:06:27.303Z,20.2
2015-09-11T14:11:29.578Z,20.2
2015-09-11T14:16:31.853Z,20.3
2015-09-11T14:21:34.004Z,20.4
2015-09-11T14:26:36.436Z,20.4
2015-09-11T14:31:38.616Z,20.4
2015-09-11T14:36:42.237Z,20.4
2015-09-11T14:41:44.058Z,20.4
2015-09-11T14:46:46.459Z,20.4
2015-09-11T14:51:48.812Z,20.4
2015-09-11T14:56:51.087Z,20.3
2015-09-11T15:01:53.363Z,20.2
2015-09-11T15:06:55.639Z,20.5
2015-09-11T15:11:57.927Z,20.4
2015-09-11T15:16:59.750Z,20.2
2015-09-11T15:22:02.259Z,20.2
2015-09-11T15:27:05.786Z,20.3
2015-09-11T15:32:07.092Z,20.2
2015-09-11T15:37:09.336Z,20.4
2015-09-11T15:42:11.627Z,20.4
2015-09-11T15:47:13.902Z,20.2
2015-09-11T15:52:16.184Z,20.3
2015-09-11T15:57:18.318Z,20.3
2015-09-11T16:02:20.249Z,20.2
2015-09-11T16:07:22.838Z,20.1
2015-09-11T16:12:25.222Z,20.2
2015-09-11T16:17:27.482Z,20
2015-09-11T16:22:29.771Z,20.1
2015-09-11T16:27:32.173Z,19.9
2015-09-11T16:32:34.338Z,19.9
2015-09-11T16:37:36.628Z,19.8
2015-09-11T16:42:38.388Z,19.8
2015-09-11T16:47:42.616Z,19.7
2015-09-11T16:52:43.267Z,19.6
2015-09-11T16:57:45.684Z,19.6
2015-09-11T17:02:47.584Z,19.4
2015-09-11T17:07:50.343Z,19.4
2015-09-11T17:12:52.666Z,19.4
2015-09-11T17:17:55.754Z,19.3
2015-09-11T17:22:58.561Z,19.2
2015-09-11T17:27:59.852Z,19.1
2015-09-11T17:33:02.627Z,19.1
2015-09-11T17:38:05.527Z,18.9
2015-09-11T17:43:07.146Z,18.9
2015-09-11T17:48:09.469Z,18.8
2015-09-11T17:53:11.649Z,18.7
2015-09-11T17:58:14.377Z,18.6
2015-09-11T18:03:16.215Z,18.5
2015-09-11T18:08:18.319Z,18.4
2015-09-11T18:13:20.265Z,18.2
2015-09-11T18:18:22.853Z,18.2
2015-09-11T18:23:24.832Z,18.2
2015-09-11T18:28:27.654Z,18.1
2015-09-11T18:33:30.555Z,18
2015-09-11T18:38:32.096Z,17.9
2015-09-11T18:43:34.434Z,17.8
2015-09-11T18:48:36.678Z,17.7
2015-09-11T18:53:39.549Z,17.5
2015-09-11T18:58:41.122Z,17.6
2015-09-11T19:03:43.068Z,17.4
2015-09-11T19:08:47.188Z,17.4
2015-09-11T19:13:48.149Z,17.3
2015-09-11T19:18:50.439Z,17.2
2015-09-11T19:23:52.262Z,17.1
2015-09-11T19:28:55.038Z,17.1
2015-09-11T19:33:57.548Z,16.9
2015-09-11T19:38:59.620Z,17
2015-09-11T19:44:01.380Z,17
2015-09-11T19:49:03.671Z,16.9
2015-09-11T19:54:06.345Z,16.8
2015-09-11T19:59:09.674Z,16.6
2015-09-11T20:04:12.129Z,16.6
2015-09-11T20:09:14.383Z,16.6
2015-09-11T20:14:16.691Z,16.4
2015-09-11T20:19:18.952Z,16.2
2015-09-11T20:24:21.259Z,16.1
2015-09-11T20:29:23.033Z,16.1
2015-09-11T20:34:26.184Z,16.2
2015-09-11T20:39:28.914Z,16.1
2015-09-11T20:44:31.313Z,16.2
2015-09-11T20:49:33.511Z,16
2015-09-11T20:54:36.612Z,16.1
2015-09-11T20:59:38.904Z,15.9
2015-09-11T21:04:41.991Z,16
2015-09-11T21:09:43.782Z,16
2015-09-11T21:14:46.089Z,15.8
2015-09-11T21:19:48.647Z,15.8
2015-09-11T21:24:51.062Z,15.8
2015-09-11T21:29:53.323Z,15.6
2015-09-11T21:34:55.706Z,15.8
2015-09-11T21:39:58.074Z,15.9
2015-09-11T21:45:00.209Z,15.8
2015-09-11T21:50:02.516Z,15.8
2015-09-11T21:55:04.808Z,15.5
2015-09-11T22:00:08.380Z,15.6
2015-09-11T22:05:10.296Z,15.9
2015-09-11T22:10:12.619Z,15.8
2015-09-11T22:15:14.815Z,15.9
2015-09-11T22:20:17.106Z,15.9
2015-09-11T22:25:19.381Z,16.1
2015-09-11T22:30:21.593Z,15.9
2015-09-11T22:35:23.853Z,16.2
2015-09-11T22:40:25.660Z,16.2
2015-09-11T22:45:27.951Z,15.7
2015-09-11T22:50:30.555Z,15.5
2015-09-11T22:55:33.471Z,15.5
2015-09-11T23:00:35.293Z,15.5
2015-09-11T23:05:37.552Z,15.4
2015-09-11T23:10:39.891Z,15.4
2015-09-11T23:15:41.713Z,15.3
2015-09-11T23:20:44.441Z,15.2
2015-09-11T23:25:46.326Z,15.1
2015-09-11T23:30:41.256Z,15.1
2015-09-11T23:35:44.141Z,15.1
2015-09-11T23:40:45.916Z,15
2015-09-11T23:45:49.333Z,15.1
2015-09-11T23:50:51.811Z,14.9
2015-09-11T23:55:53.932Z,15.1
